Time;durP1;ratioP1;P1;durP2;ratioP2;P2;SDS_P1;SDS_P2;PMS_P1;PMS_P2;Temp;Humidity;BMP_temperature;BMP_pressure;BME280_temperature;BME280_humidity;BME280_pressure;Samples;Min_cycle;Max_cycle;Signal;HPM_P1;HPM_P2
2023/07/15 00:00:54;;;;;;;2.60;1.80;;;;;;;22.08;50.63;99101.50;12219354;19;20002;-78
2023/07/15 00:04:56;;;;;;;5.80;2.15;;;;;;;22.17;50.39;99098.66;12198309;19;20018;-79
2023/07/15 00:08:58;;;;;;;3.38;2.05;;;;;;;22.23;50.66;99098.09;12223304;19;20002;-78
2023/07/15 00:13:00;;;;;;;2.25;1.70;;;;;;;22.32;50.84;99091.56;12221492;19;20030;-79
2023/07/15 00:17:02;;;;;;;5.25;2.40;;;;;;;22.42;50.62;99093.94;12198522;19;20011;-79
2023/07/15 00:21:24;;;;;;;3.92;2.03;;;;;;;22.52;50.24;99099.13;12221306;19;20019;-78
2023/07/15 00:25:26;;;;;;;2.97;2.00;;;;;;;22.53;50.07;99100.75;12200538;19;20102;-79
2023/07/15 00:29:29;;;;;;;5.43;1.80;;;;;;;22.46;51.12;99103.31;12218456;19;20007;-79
2023/07/15 00:33:31;;;;;;;6.27;1.97;;;;;;;22.37;51.37;99103.41;12221898;19;20066;-79
2023/07/15 00:37:36;;;;;;;4.25;1.63;;;;;;;22.30;52.38;99109.56;12198677;19;20021;-79
2023/07/15 00:41:38;;;;;;;2.95;2.00;;;;;;;22.14;52.71;99105.75;12221527;19;20010;-79
2023/07/15 00:45:40;;;;;;;5.50;2.60;;;;;;;22.03;52.58;99108.13;12218018;19;20416;-79
2023/07/15 00:49:43;;;;;;;3.23;2.17;;;;;;;21.88;53.46;99097.53;12197700;19;20059;-79
2023/07/15 00:53:45;;;;;;;6.45;2.30;;;;;;;21.74;54.51;99097.81;12216400;19;20030;-78
2023/07/15 00:57:47;;;;;;;3.77;2.13;;;;;;;21.58;54.70;99108.00;12217556;19;20023;-79
2023/07/15 01:01:49;;;;;;;6.57;2.03;;;;;;;21.43;55.16;99115.03;12192354;19;20631;-79
2023/07/15 01:05:51;;;;;;;5.03;2.60;;;;;;;21.29;56.16;99115.22;12219375;19;20007;-79
2023/07/15 01:09:53;;;;;;;4.25;2.30;;;;;;;21.13;56.68;99111.38;12218414;19;20840;-79
2023/07/15 01:13:56;;;;;;;5.30;2.38;;;;;;;21.01;57.79;99108.47;12195526;19;20010;-78
2023/07/15 01:17:58;;;;;;;4.18;2.28;;;;;;;20.87;58.52;99108.69;12216912;19;20071;-78
2023/07/15 01:22:02;;;;;;;4.50;2.23;;;;;;;20.74;58.93;99102.16;12216356;19;20089;-79
2023/07/15 01:26:04;;;;;;;5.00;2.67;;;;;;;20.63;60.30;99101.69;12193596;19;20422;-79
2023/07/15 01:30:06;;;;;;;6.97;1.90;;;;;;;20.61;60.44;99106.81;12216612;19;20014;-79
2023/07/15 01:34:08;;;;;;;5.20;2.15;;;;;;;20.57;61.00;99099.41;12233088;19;20011;-79
2023/07/15 01:38:10;;;;;;;4.10;1.95;;;;;;;20.60;60.46;99107.13;12222055;19;20043;-80
2023/07/15 01:42:12;;;;;;;4.28;2.35;;;;;;;20.76;59.35;99101.78;12239411;19;20014;-79
2023/07/15 01:46:13;;;;;;;4.73;2.10;;;;;;;20.89;58.77;99101.59;12222121;19;20074;-78
2023/07/15 01:50:17;;;;;;;4.57;2.20;;;;;;;21.06;58.24;99092.28;12191927;19;20082;-78
2023/07/15 01:54:18;;;;;;;6.20;2.17;;;;;;;21.22;57.55;99098.13;12215028;19;20031;-78
2023/07/15 01:58:21;;;;;;;3.42;2.08;;;;;;;21.34;57.29;99101.03;12209624;19;20798;-78
2023/07/15 02:02:23;;;;;;;;;;;;;;;21.41;57.27;99092.09;12196566;19;20033;-80
2023/07/15 02:06:25;;;;;;;3.92;2.15;;;;;;;21.51;56.66;99097.34;12213179;19;19910;-79
2023/07/15 02:10:30;;;;;;;3.20;2.10;;;;;;;21.57;56.53;99086.75;12189030;19;20002;-79
2023/07/15 02:14:31;;;;;;;4.38;2.40;;;;;;;21.63;56.51;99085.38;12209820;19;20250;-79
2023/07/15 02:18:33;;;;;;;7.82;2.03;;;;;;;21.70;56.66;99080.03;12212919;19;20014;-78
2023/07/15 02:22:35;;;;;;;4.07;2.30;;;;;;;21.73;57.00;99075.72;12191900;19;20007;-78
2023/07/15 02:26:37;;;;;;;3.67;1.93;;;;;;;21.75;57.31;99065.81;12211253;19;20049;-79
2023/07/15 02:30:38;;;;;;;4.82;2.00;;;;;;;21.76;57.64;99067.44;12212616;19;20018;-79
2023/07/15 02:34:40;;;;;;;3.93;1.83;;;;;;;21.78;57.74;99061.50;12177514;19;20030;-79
2023/07/15 02:38:42;;;;;;;4.57;1.80;;;;;;;21.81;57.67;99055.22;12207970;19;20020;-79
2023/07/15 02:42:44;;;;;;;4.57;2.50;;;;;;;21.82;57.34;99049.25;12211583;19;20095;-80
2023/07/15 02:46:47;;;;;;;2.40;1.67;;;;;;;21.81;57.30;99044.81;12192165;19;20102;-79
2023/07/15 02:50:54;;;;;;;7.43;2.03;;;;;;;21.85;56.85;99044.94;12208958;19;20419;-79
2023/07/15 02:54:56;;;;;;;4.30;1.75;;;;;;;21.87;56.75;99041.81;12214119;19;20013;-79
2023/07/15 02:58:57;;;;;;;4.47;2.03;;;;;;;21.90;56.73;99036.31;12191008;19;20121;-80
2023/07/15 03:02:59;;;;;;;6.28;2.22;;;;;;;21.98;57.90;99043.00;12213420;19;20011;-78
2023/07/15 03:07:02;;;;;;;4.37;2.30;;;;;;;22.19;58.15;99041.03;12213382;19;20002;-79
2023/07/15 03:11:07;;;;;;;6.72;2.47;;;;;;;22.34;58.58;99045.16;12190781;19;20685;-78
2023/07/15 03:15:09;;;;;;;7.78;2.20;;;;;;;22.39;58.87;99036.50;12210868;19;20019;-78
2023/07/15 03:19:11;;;;;;;2.88;2.22;;;;;;;22.44;59.91;99036.28;12211698;19;20006;-78
2023/07/15 03:23:13;;;;;;;2.80;2.20;;;;;;;22.47;61.67;99032.78;12189457;19;20085;-78
2023/07/15 03:27:15;;;;;;;4.25;2.90;;;;;;;22.56;61.61;99038.28;12213513;19;20410;-78
2023/07/15 03:31:16;;;;;;;6.17;2.50;;;;;;;22.61;62.30;99029.66;12218326;19;20440;-78
2023/07/15 03:35:25;;;;;;;5.63;2.50;;;;;;;22.70;62.31;99037.97;12235434;19;20014;-80
2023/07/15 03:39:27;;;;;;;5.55;2.63;;;;;;;22.73;63.53;99037.28;12276914;19;20389;-81
2023/07/15 03:43:28;;;;;;;4.03;2.70;;;;;;;22.80;62.98;99037.50;12251368;19;20007;-80
2023/07/15 03:47:31;;;;;;;4.27;2.77;;;;;;;22.82;62.74;99031.53;12245292;19;20602;-79
2023/07/15 03:51:34;;;;;;;4.25;2.72;;;;;;;22.85;63.04;99031.66;12215645;19;20042;-79
2023/07/15 03:55:37;;;;;;;5.03;3.03;;;;;;;22.84;62.85;99032.00;12194095;19;20265;-79
2023/07/15 03:59:39;;;;;;;5.18;2.67;;;;;;;22.80;63.05;99036.69;12217124;19;20017;-80
2023/07/15 04:03:41;;;;;;;8.97;2.73;;;;;;;22.73;62.79;99035.28;12214203;19;20006;-79
2023/07/15 04:07:43;;;;;;;6.13;2.70;;;;;;;22.72;63.05;99032.81;12195194;19;20055;-79
2023/07/15 04:11:45;;;;;;;5.07;2.33;;;;;;;22.70;62.90;99021.94;12213854;19;20018;-78
2023/07/15 04:15:47;;;;;;;7.27;2.23;;;;;;;22.69;63.20;99022.28;12212693;19;20019;-80
2023/07/15 04:19:49;;;;;;;5.13;2.33;;;;;;;22.66;63.32;99037.00;12189894;19;20562;-79
2023/07/15 04:23:52;;;;;;;8.35;2.65;;;;;;;22.64;63.14;99034.56;12210988;19;20695;-78
2023/07/15 04:27:57;;;;;;;5.38;3.35;;;;;;;22.65;63.61;99033.38;12212220;19;20083;-79
2023/07/15 04:31:59;;;;;;;3.17;2.17;;;;;;;22.63;63.39;99046.94;12217518;19;20038;-79
2023/07/15 04:36:01;;;;;;;8.93;2.70;;;;;;;22.65;63.24;99049.44;12213231;19;20357;-79
2023/07/15 04:40:04;;;;;;;6.47;2.93;;;;;;;22.66;63.75;99065.09;12223613;19;20010;-79
2023/07/15 04:44:06;;;;;;;;;;;;;;;22.64;64.09;99068.28;12202338;19;20078;-79
2023/07/15 04:48:08;;;;;;;5.55;2.55;;;;;;;22.67;63.63;99064.75;12224370;19;19931;-79
2023/07/15 04:52:10;;;;;;;5.30;3.13;;;;;;;22.68;64.07;99069.19;12219702;19;20006;-79
2023/07/15 04:56:12;;;;;;;4.33;2.43;;;;;;;22.71;64.00;99068.50;12198754;19;20011;-78
2023/07/15 05:00:16;;;;;;;5.45;2.63;;;;;;;22.74;63.39;99070.59;12217303;19;20366;-79
2023/07/15 05:04:18;;;;;;;4.70;2.28;;;;;;;22.79;63.16;99065.94;12220055;19;20010;-79
2023/07/15 05:08:22;;;;;;;4.95;2.65;;;;;;;22.84;63.19;99055.28;12199032;19;20859;-79
2023/07/15 05:12:24;;;;;;;4.60;2.40;;;;;;;22.94;63.00;99059.63;12218217;19;20042;-79
2023/07/15 05:16:26;;;;;;;4.22;2.45;;;;;;;22.98;62.71;99066.22;12195266;19;20047;-79
2023/07/15 05:20:28;;;;;;;5.97;2.97;;;;;;;23.03;62.72;99060.38;12217942;19;20010;-78
2023/07/15 05:24:30;;;;;;;5.93;2.83;;;;;;;23.06;62.60;99059.66;12218190;19;20016;-78
2023/07/15 05:28:32;;;;;;;5.70;2.45;;;;;;;23.13;62.24;99054.25;12196792;19;20109;-79
2023/07/15 05:32:34;;;;;;;6.38;2.40;;;;;;;23.23;62.35;99052.16;12215666;19;20002;-79
2023/07/15 05:36:36;;;;;;;3.33;2.23;;;;;;;23.31;62.23;99048.41;12218527;19;20553;-79
2023/07/15 05:40:40;;;;;;;4.60;2.50;;;;;;;23.45;61.39;99037.59;12193798;19;20010;-79
2023/07/15 05:44:42;;;;;;;5.80;2.50;;;;;;;23.68;61.02;99032.28;12214650;19;20444;-79
2023/07/15 05:48:44;;;;;;;4.73;2.30;;;;;;;23.94;59.82;99031.84;12217635;19;20370;-80
2023/07/15 05:52:49;;;;;;;4.47;2.60;;;;;;;24.23;58.57;99027.03;12195903;19;20011;-80
2023/07/15 05:56:52;;;;;;;4.63;2.10;;;;;;;24.67;57.77;99019.38;12217489;19;20015;-80
2023/07/15 06:00:54;;;;;;;5.93;2.50;;;;;;;25.11;56.20;99018.44;12217917;19;20010;-80
2023/07/15 06:04:55;;;;;;;3.90;2.63;;;;;;;25.36;55.36;99019.84;12197441;19;20083;-80
2023/07/15 06:08:57;;;;;;;5.40;2.67;;;;;;;25.56;54.92;99034.00;12219757;19;20264;-80
2023/07/15 06:12:59;;;;;;;4.77;2.33;;;;;;;25.57;54.79;99027.16;12217826;19;20467;-80
2023/07/15 06:17:01;;;;;;;7.78;2.78;;;;;;;25.52;54.20;99031.09;12198187;19;20006;-79
2023/07/15 06:21:03;;;;;;;4.15;2.45;;;;;;;25.48;54.42;99032.19;12217108;19;20492;-79
2023/07/15 06:25:05;;;;;;;4.70;2.27;;;;;;;25.58;54.30;99034.44;12217717;19;20023;-79
2023/07/15 06:29:07;;;;;;;4.32;2.25;;;;;;;26.02;53.89;99020.88;12194567;19;20122;-79
2023/07/15 06:33:09;;;;;;;5.43;2.42;;;;;;;26.53;52.42;99008.56;12216747;19;20006;-79
2023/07/15 06:37:11;;;;;;;4.65;2.40;;;;;;;26.87;49.65;99014.41;12218445;19;20018;-80
2023/07/15 06:41:13;;;;;;;4.22;2.00;;;;;;;27.10;48.59;99012.34;12196363;19;20020;-80
2023/07/15 06:45:20;;;;;;;5.63;2.60;;;;;;;26.94;47.85;99017.31;12204888;19;20014;-78
2023/07/15 06:49:23;;;;;;;4.65;2.58;;;;;;;26.81;48.03;99031.66;12191698;19;20030;-77
2023/07/15 06:53:25;;;;;;;4.65;2.35;;;;;;;27.05;47.05;99038.13;12195779;19;20070;-78
2023/07/15 06:57:28;;;;;;;3.38;2.28;;;;;;;27.64;45.61;99050.75;12211996;19;20073;-78
2023/07/15 07:01:30;;;;;;;4.65;1.90;;;;;;;27.99;43.48;99055.28;12188681;19;20398;-78
2023/07/15 07:05:32;;;;;;;6.10;2.10;;;;;;;28.06;42.88;99057.41;12208793;19;20011;-76
2023/07/15 07:09:34;;;;;;;6.10;2.22;;;;;;;28.03;42.26;99044.81;12207037;19;20034;-78
2023/07/15 07:13:36;;;;;;;5.93;2.20;;;;;;;28.07;42.33;99044.84;12181292;19;20085;-78
2023/07/15 07:17:38;;;;;;;4.40;2.10;;;;;;;27.93;42.74;99037.00;12180805;19;20157;-77
2023/07/15 07:21:40;;;;;;;3.58;2.13;;;;;;;27.90;42.94;99027.28;12206970;19;20010;-78
2023/07/15 07:25:42;;;;;;;;;;;;;;;27.98;42.28;99025.34;12189610;19;20015;-79
2023/07/15 07:29:44;;;;;;;3.87;2.33;;;;;;;28.24;42.03;99020.78;12205362;19;19922;-78
2023/07/15 07:33:46;;;;;;;2.53;1.90;;;;;;;28.46;41.33;99034.00;12207654;19;20007;-78
2023/07/15 07:37:49;;;;;;;3.30;2.00;;;;;;;28.47;40.74;99041.31;12188519;19;20018;-79
2023/07/15 07:41:51;;;;;;;5.80;2.70;;;;;;;28.46;42.04;99051.00;12208081;19;20541;-79
2023/07/15 07:45:52;;;;;;;3.08;1.92;;;;;;;28.45;41.45;99055.03;12210995;19;20011;-78
2023/07/15 07:49:54;;;;;;;5.72;2.22;;;;;;;28.52;40.58;99055.09;12191801;19;20010;-78
2023/07/15 07:53:56;;;;;;;3.58;2.08;;;;;;;28.52;40.74;99060.78;12211310;19;20841;-79
2023/07/15 07:57:58;;;;;;;6.90;3.13;;;;;;;28.43;40.81;99057.44;12213142;19;20018;-79
2023/07/15 08:02:00;;;;;;;7.00;2.40;;;;;;;28.52;41.44;99057.13;12191419;19;20023;-79
2023/07/15 08:06:02;;;;;;;5.30;1.95;;;;;;;28.78;40.55;99061.84;12213106;19;20024;-78
2023/07/15 08:10:04;;;;;;;4.63;2.28;;;;;;;29.06;40.01;99050.78;12209399;19;20010;-78
2023/07/15 08:14:07;;;;;;;3.90;1.77;;;;;;;29.35;39.81;99045.31;12195611;19;20006;-79
2023/07/15 08:18:10;;;;;;;3.83;2.10;;;;;;;29.50;39.37;99060.41;12214424;19;20468;-78
2023/07/15 08:22:12;;;;;;;5.80;2.47;;;;;;;30.12;39.00;99059.53;12241092;19;20007;-79
2023/07/15 08:26:13;;;;;;;4.68;2.95;;;;;;;30.33;38.04;99062.50;12203111;19;20077;-78
2023/07/15 08:30:15;;;;;;;4.60;2.13;;;;;;;30.37;37.63;99059.66;12215314;19;20019;-79
2023/07/15 08:34:17;;;;;;;5.28;2.30;;;;;;;30.56;37.79;99065.00;12222084;19;20022;-78
2023/07/15 08:38:19;;;;;;;3.63;2.05;;;;;;;30.77;36.24;99083.31;12199805;19;20025;-78
2023/07/15 08:42:22;;;;;;;3.50;2.13;;;;;;;31.19;35.84;99096.78;12218802;19;20015;-79
2023/07/15 08:46:29;;;;;;;7.57;2.15;;;;;;;31.44;35.00;99099.66;12202548;19;20429;-79
2023/07/15 08:50:33;;;;;;;5.18;2.90;;;;;;;31.54;33.94;99103.72;12219420;19;20009;-77
2023/07/15 08:54:35;;;;;;;4.45;2.85;;;;;;;31.90;34.28;99115.06;12217846;19;20058;-80
2023/07/15 08:58:38;;;;;;;;;;;;;;;32.06;33.65;99101.16;12200752;19;20024;-78
2023/07/15 09:02:40;;;;;;;;;;;;;;;31.98;33.13;99108.13;12220901;19;19938;-78
2023/07/15 09:06:42;;;;;;;3.33;2.13;;;;;;;31.65;33.57;99115.91;12215685;19;19915;-78
2023/07/15 09:10:58;;;;;;;2.97;2.20;;;;;;;31.56;33.67;99118.34;12197032;19;20000;-78
2023/07/15 09:15:01;;;;;;;5.88;2.40;;;;;;;32.03;32.86;99107.69;12218022;19;20013;-79
2023/07/15 09:19:04;;;;;;;3.72;2.08;;;;;;;32.12;32.62;99112.94;12218901;19;20357;-77
2023/07/15 09:23:06;;;;;;;4.72;2.28;;;;;;;32.22;33.01;99118.63;12190621;19;20033;-78
2023/07/15 09:27:08;;;;;;;6.82;2.53;;;;;;;32.21;32.66;99110.47;12216908;19;20018;-79
2023/07/15 09:31:10;;;;;;;3.83;2.22;;;;;;;32.43;32.28;99111.19;12208193;19;20170;-77
2023/07/15 09:35:16;;;;;;;7.93;2.80;;;;;;;32.67;31.72;99110.28;12191151;19;20021;-77
2023/07/15 09:39:22;;;;;;;4.18;2.75;;;;;;;33.03;32.24;99107.22;12215448;19;20082;-79
2023/07/15 09:43:44;;;;;;;4.00;2.70;;;;;;;33.30;31.39;99112.31;12195219;19;20006;-78
2023/07/15 09:47:46;;;;;;;4.40;3.17;;;;;;;32.88;31.59;99128.50;12215962;19;20368;-79
2023/07/15 09:51:47;;;;;;;;;;;;;;;32.46;32.34;99133.22;12212473;19;20081;-77
2023/07/15 09:55:50;;;;;;;6.50;2.80;;;;;;;32.29;32.85;99128.38;12194130;19;20303;-79
2023/07/15 09:59:52;;;;;;;6.63;3.67;;;;;;;32.10;32.80;99116.22;12214848;19;20028;-79
2023/07/15 10:04:04;;;;;;;5.57;3.05;;;;;;;31.65;33.60;99133.00;12214377;19;20013;-78
2023/07/15 10:08:06;;;;;;;6.45;3.03;;;;;;;31.14;34.92;99134.16;12191095;19;20615;-79
2023/07/15 10:12:08;;;;;;;;;;;;;;;30.64;35.48;99145.44;12212231;19;20011;-78
2023/07/15 10:16:11;;;;;;;6.05;3.38;;;;;;;30.46;36.06;99147.38;12215971;19;20011;-78
2023/07/15 10:20:14;;;;;;;9.85;3.72;;;;;;;30.18;37.23;99157.41;12191169;19;20527;-78
2023/07/15 10:24:20;;;;;;;9.13;3.55;;;;;;;29.97;37.83;99133.34;12214100;19;20010;-77
2023/07/15 10:28:22;;;;;;;7.72;3.17;;;;;;;29.93;38.20;99135.34;12213343;19;20010;-77
2023/07/15 10:32:24;;;;;;;5.78;3.38;;;;;;;30.00;38.87;99136.59;12188473;19;20006;-77
2023/07/15 10:36:35;;;;;;;6.20;3.20;;;;;;;29.93;40.14;99135.34;12210030;19;20003;-76
2023/07/15 10:40:51;;;;;;;5.13;3.17;;;;;;;29.50;41.43;99132.19;12191555;19;20371;-81
2023/07/15 10:44:54;;;;;;;6.80;3.20;;;;;;;29.20;41.71;99117.34;12211076;19;20070;-77
2023/07/15 10:48:56;;;;;;;5.15;2.80;;;;;;;29.25;42.31;99122.66;12211969;19;20014;-77
2023/07/15 10:53:19;;;;;;;5.25;3.30;;;;;;;29.26;42.76;99124.28;12183160;19;20406;-78
2023/07/15 10:57:21;;;;;;;7.35;3.33;;;;;;;29.23;42.07;99136.41;12211471;19;20025;-77
2023/07/15 11:01:24;;;;;;;9.32;4.50;;;;;;;29.22;42.44;99129.94;12193266;19;20027;-78
2023/07/15 11:05:26;;;;;;;5.65;3.30;;;;;;;29.26;42.87;99124.28;12211663;19;20147;-77
2023/07/15 11:09:29;;;;;;;4.70;3.33;;;;;;;29.23;42.94;99117.38;12210623;19;20024;-77
2023/07/15 11:13:34;;;;;;;6.78;3.40;;;;;;;29.23;43.73;99111.69;12189721;19;20014;-79
2023/07/15 11:17:40;;;;;;;5.18;2.67;;;;;;;29.32;43.94;99102.84;12212146;19;20362;-79
2023/07/15 11:21:43;;;;;;;6.05;3.20;;;;;;;29.45;44.70;99103.38;12211598;19;20010;-78
2023/07/15 11:25:46;;;;;;;5.55;3.35;;;;;;;29.50;44.23;99094.47;12189728;19;20376;-77
2023/07/15 11:29:57;;;;;;;7.68;2.97;;;;;;;29.40;44.68;99110.22;12212306;19;20015;-79
2023/07/15 11:33:58;;;;;;;14.55;3.35;;;;;;;29.08;44.98;99087.25;12208404;19;20713;-78
2023/07/15 11:38:11;;;;;;;10.45;3.60;;;;;;;28.75;48.44;99082.47;12191029;19;20027;-79
2023/07/15 11:42:13;;;;;;;12.93;3.92;;;;;;;28.30;52.26;99070.22;12212094;19;20006;-77
2023/07/15 11:46:15;;;;;;;6.95;3.33;;;;;;;27.95;55.89;99089.22;12219940;19;20010;-76
2023/07/15 11:50:18;;;;;;;5.45;3.60;;;;;;;27.82;60.01;99101.16;12224867;19;20014;-78
2023/07/15 11:54:20;;;;;;;7.40;4.13;;;;;;;27.57;63.69;99095.09;12270204;19;20014;-79
2023/07/15 11:58:37;;;;;;;;;;;;;;;27.23;64.38;99064.69;12274315;19;20003;-78
2023/07/15 12:02:39;;;;;;;8.82;4.05;;;;;;;26.96;67.82;99049.69;12227068;19;19915;-79
2023/07/15 12:06:49;;;;;;;9.90;4.80;;;;;;;26.77;71.88;98996.03;12225494;19;20003;-79
2023/07/15 12:10:54;;;;;;;10.20;4.20;;;;;;;26.37;77.80;98978.38;12197971;19;20014;-78
2023/07/15 12:14:55;;;;;;;8.20;4.78;;;;;;;25.95;83.70;99053.81;12217755;19;20199;-78
2023/07/15 12:18:59;;;;;;;6.03;4.65;;;;;;;25.92;88.22;99067.47;12221007;19;20021;-77
2023/07/15 12:23:01;;;;;;;8.13;4.70;;;;;;;26.41;89.76;99082.16;12193776;19;20675;-77
2023/07/15 12:27:03;;;;;;;;;;;;;;;26.87;92.53;99083.03;12222514;19;20022;-79
2023/07/15 12:31:05;;;;;;;8.13;4.43;;;;;;;27.17;88.87;99079.53;12215718;19;20336;-76
2023/07/15 12:35:07;;;;;;;7.03;4.72;;;;;;;27.20;93.46;99107.06;12192708;19;20006;-78
2023/07/15 12:39:10;;;;;;;8.88;4.72;;;;;;;27.09;90.00;99118.16;12221273;19;20015;-79
2023/07/15 12:43:12;;;;;;;9.55;4.40;;;;;;;27.74;81.55;99111.53;12217821;19;19999;-78
2023/07/15 12:47:13;;;;;;;7.00;3.70;;;;;;;28.76;75.72;99081.25;12192445;19;20006;-77
2023/07/15 12:51:15;;;;;;;6.38;4.13;;;;;;;28.98;71.40;99076.63;12217140;19;20106;-78
2023/07/15 12:55:17;;;;;;;6.78;4.03;;;;;;;28.76;67.49;99087.75;12220909;19;19998;-80
2023/07/15 12:59:19;;;;;;;7.30;4.68;;;;;;;28.08;64.98;99108.78;12196843;19;20725;-78
2023/07/15 13:03:20;;;;;;;6.53;3.85;;;;;;;27.67;66.33;99102.94;12219084;19;20009;-77
2023/07/15 13:07:22;;;;;;;6.05;4.13;;;;;;;27.41;67.99;99115.06;12220339;19;20006;-77
2023/07/15 13:11:24;;;;;;;8.07;3.83;;;;;;;27.38;69.92;99116.66;12215262;19;20002;-79
2023/07/15 13:15:26;;;;;;;6.38;3.65;;;;;;;27.45;69.02;99102.59;12215553;19;20070;-77
2023/07/15 13:19:28;;;;;;;8.05;4.13;;;;;;;27.36;69.65;99102.06;12194567;19;20027;-76
2023/07/15 13:23:29;;;;;;;8.70;4.25;;;;;;;27.12;71.17;99091.94;12215063;19;20023;-78
2023/07/15 13:27:32;;;;;;;12.65;3.90;;;;;;;26.76;71.22;99084.88;12213901;19;20527;-79
2023/07/15 13:31:34;;;;;;;7.90;4.55;;;;;;;26.65;72.56;99075.38;12192587;19;20006;-76
2023/07/15 13:35:36;;;;;;;7.55;3.95;;;;;;;26.90;71.35;99085.13;12210448;19;20471;-78
2023/07/15 13:39:42;;;;;;;7.50;3.70;;;;;;;27.33;69.38;99082.22;12217327;19;20014;-77
2023/07/15 13:43:45;;;;;;;6.05;3.63;;;;;;;27.52;66.41;99081.31;12193180;19;20007;-77
2023/07/15 13:47:51;;;;;;;6.75;3.50;;;;;;;27.37;66.35;99098.06;12215244;19;20062;-77
2023/07/15 13:51:54;;;;;;;5.32;3.25;;;;;;;27.05;66.95;99117.28;12213367;19;20038;-78
2023/07/15 13:55:56;;;;;;;7.57;4.13;;;;;;;26.91;68.09;99134.00;12193475;19;20031;-78
2023/07/15 13:59:58;;;;;;;6.88;3.83;;;;;;;26.68;68.12;99139.59;12216352;19;20022;-76
2023/07/15 14:03:59;;;;;;;4.95;3.75;;;;;;;26.47;69.69;99128.66;12215169;19;20357;-77
2023/07/15 14:08:01;;;;;;;5.43;3.33;;;;;;;26.20;70.65;99137.00;12191126;19;20382;-78
2023/07/15 14:12:04;;;;;;;7.00;3.78;;;;;;;26.04;72.27;99164.50;12209154;19;20007;-79
2023/07/15 14:16:05;;;;;;;;;;;;;;;25.87;72.63;99175.00;12216495;19;20003;-78
2023/07/15 14:20:08;;;;;;;7.68;3.90;;;;;;;25.80;73.33;99134.50;12189217;19;20332;-77
2023/07/15 14:24:10;;;;;;;7.15;3.95;;;;;;;25.66;74.81;99121.69;12211301;19;20065;-77
2023/07/15 14:28:12;;;;;;;5.57;3.78;;;;;;;25.56;75.73;99136.38;12214232;19;19999;-77
2023/07/15 14:32:14;;;;;;;5.68;3.83;;;;;;;25.46;75.89;99129.28;12188405;19;20107;-76
2023/07/15 14:36:16;;;;;;;6.40;3.95;;;;;;;25.40;77.47;99127.94;12208587;19;20028;-78
2023/07/15 14:40:17;;;;;;;9.27;4.67;;;;;;;25.40;77.40;99116.66;12212553;19;20010;-78
2023/07/15 14:44:19;;;;;;;7.37;3.57;;;;;;;25.51;78.09;99122.53;12189739;19;20254;-77
2023/07/15 14:48:21;;;;;;;7.20;3.90;;;;;;;25.59;77.91;99101.78;12211304;19;20025;-77
2023/07/15 14:52:24;;;;;;;5.25;3.63;;;;;;;25.63;78.68;99096.22;12200885;19;20528;-76
2023/07/15 14:56:26;;;;;;;6.68;3.65;;;;;;;25.64;79.82;99128.88;12212453;19;20074;-77
2023/07/15 15:00:28;;;;;;;7.37;4.17;;;;;;;25.63;79.87;99132.88;12205009;19;21307;-76
2023/07/15 15:04:30;;;;;;;6.32;4.10;;;;;;;25.64;79.68;99104.31;12189721;19;20787;-77
2023/07/15 15:08:31;;;;;;;6.93;3.60;;;;;;;25.65;80.74;99110.78;12210867;19;20028;-78
2023/07/15 15:12:33;;;;;;;8.60;4.38;;;;;;;25.61;81.25;99107.03;12211409;19;20011;-76
2023/07/15 15:16:35;;;;;;;7.17;3.90;;;;;;;25.52;81.99;99123.34;12188833;19;20094;-78
2023/07/15 15:20:37;;;;;;;7.40;4.07;;;;;;;25.49;82.32;99129.72;12207309;19;20283;-79
2023/07/15 15:24:39;;;;;;;6.18;4.28;;;;;;;25.35;86.00;99176.16;12210617;19;20463;-76
2023/07/15 15:28:42;;;;;;;7.27;4.23;;;;;;;24.99;89.72;99194.94;12192356;19;20003;-76
2023/07/15 15:32:47;;;;;;;6.32;4.07;;;;;;;24.81;92.48;99196.44;12211773;19;20266;-79
2023/07/15 15:36:48;;;;;;;8.18;4.20;;;;;;;24.74;95.63;99190.59;12205355;19;20015;-77
2023/07/15 15:40:50;;;;;;;6.80;4.17;;;;;;;24.82;96.15;99178.34;12188498;19;20007;-78
2023/07/15 15:44:55;;;;;;;10.93;4.78;;;;;;;25.05;97.17;99200.31;12208764;19;20276;-77
2023/07/15 15:48:57;;;;;;;7.53;4.80;;;;;;;25.17;94.90;99208.72;12208512;19;20062;-77
2023/07/15 15:52:59;;;;;;;7.07;4.13;;;;;;;25.21;94.61;99203.97;12185946;19;20007;-77
2023/07/15 15:57:01;;;;;;;8.38;5.07;;;;;;;25.21;95.60;99175.78;12208166;19;20110;-78
2023/07/15 16:01:03;;;;;;;11.73;5.75;;;;;;;25.27;95.76;99159.41;12208508;19;20011;-77
2023/07/15 16:05:05;;;;;;;7.20;4.30;;;;;;;25.43;95.56;99148.91;12185544;19;20011;-76
2023/07/15 16:09:06;;;;;;;6.15;4.28;;;;;;;25.92;91.89;99154.16;12210208;19;20010;-77
2023/07/15 16:13:08;;;;;;;8.53;4.43;;;;;;;25.98;89.62;99157.50;12205790;19;20062;-78
2023/07/15 16:17:10;;;;;;;7.28;4.60;;;;;;;25.77;90.51;99152.97;12187777;19;20259;-78
2023/07/15 16:21:12;;;;;;;5.97;4.00;;;;;;;25.62;91.07;99143.34;12205360;19;20016;-77
2023/07/15 16:25:15;;;;;;;6.95;4.00;;;;;;;25.53;89.93;99125.81;12208237;19;20074;-78
2023/07/15 16:29:16;;;;;;;5.47;3.60;;;;;;;25.45;90.66;99118.38;12183334;19;20007;-78
2023/07/15 16:33:18;;;;;;;5.90;3.33;;;;;;;25.42;90.30;99119.09;12209784;19;20010;-77
2023/07/15 16:37:20;;;;;;;7.65;3.83;;;;;;;25.34;91.37;99120.91;12212166;19;20467;-77
2023/07/15 16:41:25;;;;;;;5.95;3.72;;;;;;;25.35;91.32;99110.47;12194859;19;20400;-78
2023/07/15 16:45:26;;;;;;;4.37;3.00;;;;;;;25.50;88.67;99104.00;12217991;19;20047;-77
2023/07/15 16:49:28;;;;;;;5.77;3.53;;;;;;;25.64;87.19;99101.50;12197217;19;20339;-76
2023/07/15 16:53:30;;;;;;;5.20;3.40;;;;;;;25.59;86.79;99086.88;12215792;19;20007;-76
2023/07/15 16:57:32;;;;;;;4.35;3.38;;;;;;;25.44;87.76;99100.63;12217604;19;20315;-78
2023/07/15 17:01:33;;;;;;;5.47;3.40;;;;;;;25.41;88.64;99103.38;12190587;19;20456;-78
2023/07/15 17:05:35;;;;;;;5.17;3.20;;;;;;;25.50;87.77;99098.34;12216823;19;20278;-77
2023/07/15 17:09:37;;;;;;;10.17;3.37;;;;;;;25.56;87.95;99102.50;12217934;19;20243;-77
2023/07/15 17:13:39;;;;;;;5.03;2.97;;;;;;;25.56;87.44;99108.16;12195247;19;20260;-78
2023/07/15 17:17:40;;;;;;;7.13;2.90;;;;;;;25.50;87.06;99111.63;12218213;19;20248;-78
2023/07/15 17:21:42;;;;;;;7.57;3.15;;;;;;;25.51;86.96;99105.63;12215888;19;20003;-79
2023/07/15 17:25:44;;;;;;;5.47;3.00;;;;;;;25.49;86.57;99099.50;12195777;19;20003;-78
2023/07/15 17:29:46;;;;;;;5.17;3.30;;;;;;;25.62;85.89;99095.41;12215544;19;20187;-77
2023/07/15 17:33:48;;;;;;;4.43;2.80;;;;;;;25.59;85.91;99098.97;12215815;19;20078;-78
2023/07/15 17:37:51;;;;;;;6.32;2.53;;;;;;;25.37;86.65;99097.66;12189263;19;20292;-78
2023/07/15 17:41:53;;;;;;;8.43;3.00;;;;;;;25.18;87.66;99097.56;12214541;19;20011;-80
2023/07/15 17:45:54;;;;;;;4.23;2.70;;;;;;;24.98;89.13;99091.81;12215293;19;20356;-79
2023/07/15 17:49:56;;;;;;;6.57;3.20;;;;;;;24.86;90.36;99072.16;12193331;19;20243;-79
2023/07/15 17:53:58;;;;;;;8.60;3.87;;;;;;;24.89;90.72;99068.63;12215473;19;20592;-78
2023/07/15 17:58:00;;;;;;;6.43;3.00;;;;;;;25.13;89.60;99063.97;12215075;19;20036;-79
2023/07/15 18:02:01;;;;;;;3.78;2.65;;;;;;;25.41;88.36;99070.34;12189340;19;20248;-77
2023/07/15 18:06:03;;;;;;;6.13;3.20;;;;;;;25.59;87.67;99079.22;12207846;19;20103;-78
2023/07/15 18:10:06;;;;;;;4.73;3.07;;;;;;;25.72;86.88;99094.00;12209938;19;20674;-77
2023/07/15 18:14:07;;;;;;;;;;;;;;;25.86;85.92;99088.72;12188056;19;20248;-76
2023/07/15 18:18:09;;;;;;;5.43;3.30;;;;;;;26.14;84.83;99082.03;12212547;19;19909;-79
2023/07/15 18:22:11;;;;;;;6.00;3.22;;;;;;;26.27;83.86;99089.16;12211539;19;20070;-79
2023/07/15 18:26:14;;;;;;;6.93;3.22;;;;;;;26.13;83.83;99092.50;12191585;19;20069;-77
2023/07/15 18:30:15;;;;;;;8.65;3.83;;;;;;;25.90;85.89;99089.59;12213843;19;20007;-78
2023/07/15 18:34:17;;;;;;;4.93;2.97;;;;;;;25.62;86.71;99103.06;12206557;19;20090;-76
2023/07/15 18:38:25;;;;;;;6.85;3.63;;;;;;;25.47;87.55;99104.72;12185047;19;20007;-76
2023/07/15 18:42:27;;;;;;;5.22;3.47;;;;;;;25.36;88.24;99098.00;12205308;19;20014;-76
2023/07/15 18:46:29;;;;;;;6.20;3.47;;;;;;;25.26;89.31;99099.38;12188718;19;20014;-77
2023/07/15 18:50:31;;;;;;;4.13;2.95;;;;;;;25.17;89.59;99079.84;12210511;19;20283;-78